sensor_id;sensor_type;location;lat;lon;timestamp;P1;durP1;ratioP1;P2;durP2;ratioP2
27265;SDS011;14766;51.380;13.762;2022-07-09T00:01:48;2.47;;;1.45;;
27265;SDS011;14766;51.380;13.762;2022-07-09T00:04:16;2.78;;;1.40;;
27265;SDS011;14766;51.380;13.762;2022-07-09T00:06:43;3.17;;;1.42;;
27265;SDS011;14766;51.380;13.762;2022-07-09T00:09:10;3.08;;;1.67;;
27265;SDS011;14766;51.380;13.762;2022-07-09T00:11:37;2.50;;;1.63;;
27265;SDS011;14766;51.380;13.762;2022-07-09T00:14:04;3.05;;;1.90;;
27265;SDS011;14766;51.380;13.762;2022-07-09T00:16:31;2.65;;;1.55;;
27265;SDS011;14766;51.380;13.762;2022-07-09T00:18:58;2.88;;;1.90;;
27265;SDS011;14766;51.380;13.762;2022-07-09T00:21:25;4.65;;;1.80;;
27265;SDS011;14766;51.380;13.762;2022-07-09T00:23:52;3.58;;;1.67;;
27265;SDS011;14766;51.380;13.762;2022-07-09T00:26:19;4.00;;;2.00;;
27265;SDS011;14766;51.380;13.762;2022-07-09T00:28:46;2.85;;;1.67;;
27265;SDS011;14766;51.380;13.762;2022-07-09T00:31:13;2.20;;;1.77;;
27265;SDS011;14766;51.380;13.762;2022-07-09T00:33:40;4.40;;;1.90;;
27265;SDS011;14766;51.380;13.762;2022-07-09T00:36:07;3.88;;;2.00;;
27265;SDS011;14766;51.380;13.762;2022-07-09T00:38:34;3.00;;;1.52;;
27265;SDS011;14766;51.380;13.762;2022-07-09T00:41:02;3.15;;;2.10;;
27265;SDS011;14766;51.380;13.762;2022-07-09T00:43:29;2.72;;;1.90;;
27265;SDS011;14766;51.380;13.762;2022-07-09T00:45:57;3.20;;;1.77;;
27265;SDS011;14766;51.380;13.762;2022-07-09T00:48:24;4.32;;;2.22;;
27265;SDS011;14766;51.380;13.762;2022-07-09T00:50:53;2.42;;;1.83;;
27265;SDS011;14766;51.380;13.762;2022-07-09T00:53:23;2.50;;;1.85;;
27265;SDS011;14766;51.380;13.762;2022-07-09T00:55:52;2.25;;;1.63;;
27265;SDS011;14766;51.380;13.762;2022-07-09T00:58:21;4.28;;;1.95;;
27265;SDS011;14766;51.380;13.762;2022-07-09T01:01:09;3.65;;;2.17;;
27265;SDS011;14766;51.380;13.762;2022-07-09T01:03:49;6.43;;;2.47;;
27265;SDS011;14766;51.380;13.762;2022-07-09T01:06:17;3.67;;;2.05;;
27265;SDS011;14766;51.380;13.762;2022-07-09T01:08:44;4.63;;;2.25;;
27265;SDS011;14766;51.380;13.762;2022-07-09T01:11:11;2.10;;;1.90;;
27265;SDS011;14766;51.380;13.762;2022-07-09T01:13:39;3.03;;;2.13;;
27265;SDS011;14766;51.380;13.762;2022-07-09T01:16:11;4.18;;;2.17;;
27265;SDS011;14766;51.380;13.762;2022-07-09T01:18:46;2.65;;;2.05;;
27265;SDS011;14766;51.380;13.762;2022-07-09T01:21:13;2.53;;;2.22;;
27265;SDS011;14766;51.380;13.762;2022-07-09T01:23:41;2.53;;;2.08;;
27265;SDS011;14766;51.380;13.762;2022-07-09T01:26:08;3.80;;;2.20;;
27265;SDS011;14766;51.380;13.762;2022-07-09T01:28:35;5.13;;;2.20;;
27265;SDS011;14766;51.380;13.762;2022-07-09T01:31:02;3.20;;;2.25;;
27265;SDS011;14766;51.380;13.762;2022-07-09T01:33:30;2.80;;;1.90;;
27265;SDS011;14766;51.380;13.762;2022-07-09T01:35:58;2.55;;;2.20;;
27265;SDS011;14766;51.380;13.762;2022-07-09T01:38:25;2.70;;;2.22;;
27265;SDS011;14766;51.380;13.762;2022-07-09T01:40:52;5.43;;;2.42;;
27265;SDS011;14766;51.380;13.762;2022-07-09T01:43:19;3.22;;;2.00;;
27265;SDS011;14766;51.380;13.762;2022-07-09T01:45:46;2.92;;;2.08;;
27265;SDS011;14766;51.380;13.762;2022-07-09T01:48:14;3.00;;;2.25;;
27265;SDS011;14766;51.380;13.762;2022-07-09T01:50:42;3.70;;;2.25;;
27265;SDS011;14766;51.380;13.762;2022-07-09T01:53:10;3.13;;;2.22;;
27265;SDS011;14766;51.380;13.762;2022-07-09T01:55:37;2.58;;;2.28;;
27265;SDS011;14766;51.380;13.762;2022-07-09T01:58:04;4.53;;;2.20;;
27265;SDS011;14766;51.380;13.762;2022-07-09T02:00:31;2.53;;;2.10;;
27265;SDS011;14766;51.380;13.762;2022-07-09T02:02:58;2.92;;;2.00;;
27265;SDS011;14766;51.380;13.762;2022-07-09T02:05:25;4.72;;;2.35;;
27265;SDS011;14766;51.380;13.762;2022-07-09T02:07:52;4.55;;;2.22;;
27265;SDS011;14766;51.380;13.762;2022-07-09T02:10:19;3.08;;;2.30;;
27265;SDS011;14766;51.380;13.762;2022-07-09T02:12:47;3.08;;;2.22;;
27265;SDS011;14766;51.380;13.762;2022-07-09T02:15:14;4.63;;;2.35;;
27265;SDS011;14766;51.380;13.762;2022-07-09T02:17:42;3.75;;;2.47;;
27265;SDS011;14766;51.380;13.762;2022-07-09T02:20:09;3.05;;;1.88;;
27265;SDS011;14766;51.380;13.762;2022-07-09T02:22:38;2.45;;;2.25;;
27265;SDS011;14766;51.380;13.762;2022-07-09T02:25:07;2.40;;;1.95;;
27265;SDS011;14766;51.380;13.762;2022-07-09T02:27:35;4.20;;;1.98;;
27265;SDS011;14766;51.380;13.762;2022-07-09T02:30:04;3.58;;;2.20;;
27265;SDS011;14766;51.380;13.762;2022-07-09T02:32:32;3.22;;;2.20;;
27265;SDS011;14766;51.380;13.762;2022-07-09T02:34:59;2.90;;;2.00;;
27265;SDS011;14766;51.380;13.762;2022-07-09T02:37:26;2.28;;;1.88;;
27265;SDS011;14766;51.380;13.762;2022-07-09T02:39:54;2.85;;;2.45;;
27265;SDS011;14766;51.380;13.762;2022-07-09T02:42:21;4.22;;;2.50;;
27265;SDS011;14766;51.380;13.762;2022-07-09T02:44:48;3.35;;;2.42;;
27265;SDS011;14766;51.380;13.762;2022-07-09T02:47:17;4.28;;;2.13;;
27265;SDS011;14766;51.380;13.762;2022-07-09T02:49:45;2.58;;;2.10;;
27265;SDS011;14766;51.380;13.762;2022-07-09T02:52:13;2.33;;;1.70;;
27265;SDS011;14766;51.380;13.762;2022-07-09T02:54:40;3.70;;;2.50;;
27265;SDS011;14766;51.380;13.762;2022-07-09T02:57:09;4.18;;;2.08;;
27265;SDS011;14766;51.380;13.762;2022-07-09T02:59:37;4.78;;;2.50;;
27265;SDS011;14766;51.380;13.762;2022-07-09T03:02:05;2.38;;;2.15;;
27265;SDS011;14766;51.380;13.762;2022-07-09T03:04:32;3.63;;;2.38;;
27265;SDS011;14766;51.380;13.762;2022-07-09T03:06:59;5.38;;;2.25;;
27265;SDS011;14766;51.380;13.762;2022-07-09T03:09:26;2.58;;;2.13;;
27265;SDS011;14766;51.380;13.762;2022-07-09T03:11:54;2.75;;;2.17;;
27265;SDS011;14766;51.380;13.762;2022-07-09T03:14:21;4.30;;;2.50;;
27265;SDS011;14766;51.380;13.762;2022-07-09T03:16:50;3.70;;;2.40;;
27265;SDS011;14766;51.380;13.762;2022-07-09T03:19:17;4.78;;;2.35;;
27265;SDS011;14766;51.380;13.762;2022-07-09T03:21:45;4.55;;;2.58;;
27265;SDS011;14766;51.380;13.762;2022-07-09T03:24:12;2.60;;;2.20;;
27265;SDS011;14766;51.380;13.762;2022-07-09T03:26:41;3.17;;;2.53;;
27265;SDS011;14766;51.380;13.762;2022-07-09T03:29:08;4.00;;;2.45;;
27265;SDS011;14766;51.380;13.762;2022-07-09T03:31:36;3.15;;;2.38;;
27265;SDS011;14766;51.380;13.762;2022-07-09T03:34:03;4.53;;;2.40;;
27265;SDS011;14766;51.380;13.762;2022-07-09T03:36:30;2.80;;;2.28;;
27265;SDS011;14766;51.380;13.762;2022-07-09T03:38:57;6.05;;;2.60;;
27265;SDS011;14766;51.380;13.762;2022-07-09T03:41:24;4.57;;;2.42;;
27265;SDS011;14766;51.380;13.762;2022-07-09T03:43:53;3.10;;;2.15;;
27265;SDS011;14766;51.380;13.762;2022-07-09T03:46:20;3.67;;;2.28;;
27265;SDS011;14766;51.380;13.762;2022-07-09T03:48:47;4.80;;;2.72;;
27265;SDS011;14766;51.380;13.762;2022-07-09T03:51:15;2.83;;;2.40;;
27265;SDS011;14766;51.380;13.762;2022-07-09T03:53:43;3.45;;;2.53;;
27265;SDS011;14766;51.380;13.762;2022-07-09T03:56:11;3.13;;;2.55;;
27265;SDS011;14766;51.380;13.762;2022-07-09T03:58:38;2.55;;;2.28;;
27265;SDS011;14766;51.380;13.762;2022-07-09T04:01:07;3.15;;;2.05;;
27265;SDS011;14766;51.380;13.762;2022-07-09T04:03:35;3.70;;;2.42;;
27265;SDS011;14766;51.380;13.762;2022-07-09T04:06:02;4.78;;;2.05;;
27265;SDS011;14766;51.380;13.762;2022-07-09T04:08:29;2.47;;;2.05;;
27265;SDS011;14766;51.380;13.762;2022-07-09T04:10:57;4.70;;;2.38;;
27265;SDS011;14766;51.380;13.762;2022-07-09T04:13:24;3.10;;;2.10;;
27265;SDS011;14766;51.380;13.762;2022-07-09T04:15:51;3.78;;;2.25;;
27265;SDS011;14766;51.380;13.762;2022-07-09T04:18:18;3.55;;;2.00;;
27265;SDS011;14766;51.380;13.762;2022-07-09T04:20:45;4.10;;;2.17;;
27265;SDS011;14766;51.380;13.762;2022-07-09T04:23:12;4.30;;;1.80;;
27265;SDS011;14766;51.380;13.762;2022-07-09T04:25:40;4.22;;;2.45;;
27265;SDS011;14766;51.380;13.762;2022-07-09T04:28:07;2.60;;;1.90;;
27265;SDS011;14766;51.380;13.762;2022-07-09T04:30:34;3.97;;;2.47;;
27265;SDS011;14766;51.380;13.762;2022-07-09T04:33:03;2.22;;;1.80;;
27265;SDS011;14766;51.380;13.762;2022-07-09T04:35:31;5.03;;;2.10;;
27265;SDS011;14766;51.380;13.762;2022-07-09T04:37:58;4.43;;;2.28;;
27265;SDS011;14766;51.380;13.762;2022-07-09T04:40:30;4.50;;;2.50;;
27265;SDS011;14766;51.380;13.762;2022-07-09T04:42:57;4.30;;;2.20;;
27265;SDS011;14766;51.380;13.762;2022-07-09T04:45:24;3.83;;;2.10;;
27265;SDS011;14766;51.380;13.762;2022-07-09T04:47:52;5.25;;;2.30;;
27265;SDS011;14766;51.380;13.762;2022-07-09T04:50:19;4.32;;;2.40;;
27265;SDS011;14766;51.380;13.762;2022-07-09T04:52:46;4.47;;;2.42;;
27265;SDS011;14766;51.380;13.762;2022-07-09T04:55:14;2.60;;;2.28;;
27265;SDS011;14766;51.380;13.762;2022-07-09T04:57:43;4.90;;;2.65;;
27265;SDS011;14766;51.380;13.762;2022-07-09T05:00:10;3.97;;;2.17;;
27265;SDS011;14766;51.380;13.762;2022-07-09T05:02:38;3.03;;;2.40;;
27265;SDS011;14766;51.380;13.762;2022-07-09T05:05:06;4.05;;;2.58;;
27265;SDS011;14766;51.380;13.762;2022-07-09T05:07:34;3.70;;;2.33;;
27265;SDS011;14766;51.380;13.762;2022-07-09T05:10:02;4.93;;;2.55;;
27265;SDS011;14766;51.380;13.762;2022-07-09T05:12:30;4.25;;;2.25;;
27265;SDS011;14766;51.380;13.762;2022-07-09T05:14:57;3.80;;;2.42;;
27265;SDS011;14766;51.380;13.762;2022-07-09T05:17:26;4.10;;;2.28;;
27265;SDS011;14766;51.380;13.762;2022-07-09T05:19:53;3.33;;;2.70;;
27265;SDS011;14766;51.380;13.762;2022-07-09T05:22:21;4.32;;;2.70;;
27265;SDS011;14766;51.380;13.762;2022-07-09T05:24:49;3.28;;;2.47;;
27265;SDS011;14766;51.380;13.762;2022-07-09T05:27:17;3.78;;;2.65;;
27265;SDS011;14766;51.380;13.762;2022-07-09T05:29:44;2.90;;;2.58;;
27265;SDS011;14766;51.380;13.762;2022-07-09T05:32:11;4.22;;;2.40;;
27265;SDS011;14766;51.380;13.762;2022-07-09T05:34:39;4.57;;;2.42;;
27265;SDS011;14766;51.380;13.762;2022-07-09T05:37:07;3.58;;;2.20;;
27265;SDS011;14766;51.380;13.762;2022-07-09T05:39:39;4.20;;;2.50;;
27265;SDS011;14766;51.380;13.762;2022-07-09T05:42:07;5.25;;;2.50;;
27265;SDS011;14766;51.380;13.762;2022-07-09T05:44:35;4.05;;;2.00;;
27265;SDS011;14766;51.380;13.762;2022-07-09T05:47:04;5.85;;;2.63;;
27265;SDS011;14766;51.380;13.762;2022-07-09T05:49:32;4.43;;;2.20;;
27265;SDS011;14766;51.380;13.762;2022-07-09T05:51:59;3.85;;;2.50;;
27265;SDS011;14766;51.380;13.762;2022-07-09T05:54:27;5.57;;;2.47;;
27265;SDS011;14766;51.380;13.762;2022-07-09T05:56:54;7.35;;;2.50;;
27265;SDS011;14766;51.380;13.762;2022-07-09T05:59:21;5.47;;;2.00;;
27265;SDS011;14766;51.380;13.762;2022-07-09T06:01:48;4.38;;;2.47;;
27265;SDS011;14766;51.380;13.762;2022-07-09T06:04:15;3.78;;;2.15;;
27265;SDS011;14766;51.380;13.762;2022-07-09T06:06:42;4.22;;;2.05;;
27265;SDS011;14766;51.380;13.762;2022-07-09T06:09:09;3.90;;;2.40;;
27265;SDS011;14766;51.380;13.762;2022-07-09T06:11:36;4.70;;;2.35;;
27265;SDS011;14766;51.380;13.762;2022-07-09T06:14:03;3.65;;;2.22;;
27265;SDS011;14766;51.380;13.762;2022-07-09T06:16:30;4.07;;;2.05;;
27265;SDS011;14766;51.380;13.762;2022-07-09T06:18:57;3.38;;;2.13;;
27265;SDS011;14766;51.380;13.762;2022-07-09T06:21:25;3.03;;;2.20;;
27265;SDS011;14766;51.380;13.762;2022-07-09T06:23:53;3.22;;;2.00;;
27265;SDS011;14766;51.380;13.762;2022-07-09T06:26:20;3.47;;;2.00;;
27265;SDS011;14766;51.380;13.762;2022-07-09T06:28:48;2.97;;;2.17;;
27265;SDS011;14766;51.380;13.762;2022-07-09T06:31:15;5.70;;;2.20;;
27265;SDS011;14766;51.380;13.762;2022-07-09T06:33:42;3.55;;;2.17;;
27265;SDS011;14766;51.380;13.762;2022-07-09T06:36:10;3.50;;;1.92;;
27265;SDS011;14766;51.380;13.762;2022-07-09T06:38:37;3.75;;;2.47;;
27265;SDS011;14766;51.380;13.762;2022-07-09T06:41:24;6.05;;;2.55;;
27265;SDS011;14766;51.380;13.762;2022-07-09T06:43:51;4.82;;;2.33;;
27265;SDS011;14766;51.380;13.762;2022-07-09T06:46:19;4.35;;;2.38;;
27265;SDS011;14766;51.380;13.762;2022-07-09T06:48:47;6.13;;;2.40;;
27265;SDS011;14766;51.380;13.762;2022-07-09T06:51:15;4.75;;;2.20;;
27265;SDS011;14766;51.380;13.762;2022-07-09T06:53:44;5.57;;;2.65;;
27265;SDS011;14766;51.380;13.762;2022-07-09T06:56:12;4.55;;;2.60;;
27265;SDS011;14766;51.380;13.762;2022-07-09T06:58:39;4.43;;;2.45;;
27265;SDS011;14766;51.380;13.762;2022-07-09T07:01:06;3.22;;;2.35;;
27265;SDS011;14766;51.380;13.762;2022-07-09T07:03:34;4.38;;;2.42;;
27265;SDS011;14766;51.380;13.762;2022-07-09T07:06:01;5.00;;;2.40;;
27265;SDS011;14766;51.380;13.762;2022-07-09T07:08:28;4.07;;;2.17;;
27265;SDS011;14766;51.380;13.762;2022-07-09T07:10:55;5.15;;;2.30;;
27265;SDS011;14766;51.380;13.762;2022-07-09T07:13:24;12.52;;;2.63;;
27265;SDS011;14766;51.380;13.762;2022-07-09T07:15:52;3.55;;;2.22;;
27265;SDS011;14766;51.380;13.762;2022-07-09T07:18:19;5.28;;;2.60;;
27265;SDS011;14766;51.380;13.762;2022-07-09T07:20:46;4.63;;;2.40;;
27265;SDS011;14766;51.380;13.762;2022-07-09T07:23:14;4.43;;;2.17;;
27265;SDS011;14766;51.380;13.762;2022-07-09T07:25:42;4.05;;;2.20;;
27265;SDS011;14766;51.380;13.762;2022-07-09T07:28:09;3.95;;;2.17;;
27265;SDS011;14766;51.380;13.762;2022-07-09T07:30:36;4.28;;;2.38;;
27265;SDS011;14766;51.380;13.762;2022-07-09T07:33:05;6.35;;;3.08;;
27265;SDS011;14766;51.380;13.762;2022-07-09T07:35:32;6.05;;;2.38;;
27265;SDS011;14766;51.380;13.762;2022-07-09T07:38:00;3.17;;;2.58;;
27265;SDS011;14766;51.380;13.762;2022-07-09T07:40:28;4.07;;;2.83;;
27265;SDS011;14766;51.380;13.762;2022-07-09T07:42:55;4.97;;;2.65;;
27265;SDS011;14766;51.380;13.762;2022-07-09T07:45:22;9.27;;;2.72;;
27265;SDS011;14766;51.380;13.762;2022-07-09T07:47:49;5.68;;;2.50;;
27265;SDS011;14766;51.380;13.762;2022-07-09T07:50:17;7.05;;;2.80;;
27265;SDS011;14766;51.380;13.762;2022-07-09T07:52:44;4.22;;;2.38;;
27265;SDS011;14766;51.380;13.762;2022-07-09T07:55:13;6.75;;;3.17;;
27265;SDS011;14766;51.380;13.762;2022-07-09T07:57:40;4.85;;;2.95;;
27265;SDS011;14766;51.380;13.762;2022-07-09T08:00:08;7.65;;;3.00;;
27265;SDS011;14766;51.380;13.762;2022-07-09T08:02:39;3.55;;;2.38;;
27265;SDS011;14766;51.380;13.762;2022-07-09T08:05:06;3.88;;;2.63;;
27265;SDS011;14766;51.380;13.762;2022-07-09T08:07:34;5.05;;;2.60;;
27265;SDS011;14766;51.380;13.762;2022-07-09T08:10:01;2.90;;;2.50;;
27265;SDS011;14766;51.380;13.762;2022-07-09T08:12:28;7.30;;;2.97;;
27265;SDS011;14766;51.380;13.762;2022-07-09T08:14:55;5.30;;;2.40;;
27265;SDS011;14766;51.380;13.762;2022-07-09T08:17:23;5.00;;;2.50;;
27265;SDS011;14766;51.380;13.762;2022-07-09T08:19:51;4.38;;;2.53;;
27265;SDS011;14766;51.380;13.762;2022-07-09T08:22:18;4.90;;;2.50;;
27265;SDS011;14766;51.380;13.762;2022-07-09T08:24:45;5.10;;;2.95;;
27265;SDS011;14766;51.380;13.762;2022-07-09T08:27:12;4.32;;;2.50;;
27265;SDS011;14766;51.380;13.762;2022-07-09T08:29:39;5.57;;;2.40;;
27265;SDS011;14766;51.380;13.762;2022-07-09T08:32:08;3.67;;;2.03;;
27265;SDS011;14766;51.380;13.762;2022-07-09T08:34:37;3.67;;;2.20;;
27265;SDS011;14766;51.380;13.762;2022-07-09T08:37:04;6.20;;;2.45;;
27265;SDS011;14766;51.380;13.762;2022-07-09T08:39:31;5.00;;;2.30;;
27265;SDS011;14766;51.380;13.762;2022-07-09T08:41:58;4.32;;;2.50;;
27265;SDS011;14766;51.380;13.762;2022-07-09T08:44:28;3.42;;;2.33;;
27265;SDS011;14766;51.380;13.762;2022-07-09T08:46:56;3.58;;;1.88;;
27265;SDS011;14766;51.380;13.762;2022-07-09T08:49:27;2.97;;;1.98;;
27265;SDS011;14766;51.380;13.762;2022-07-09T08:51:55;4.85;;;2.80;;
27265;SDS011;14766;51.380;13.762;2022-07-09T08:54:23;5.60;;;2.53;;
27265;SDS011;14766;51.380;13.762;2022-07-09T08:56:51;6.32;;;2.70;;
27265;SDS011;14766;51.380;13.762;2022-07-09T08:59:19;4.32;;;2.78;;
27265;SDS011;14766;51.380;13.762;2022-07-09T09:01:47;3.58;;;2.30;;
27265;SDS011;14766;51.380;13.762;2022-07-09T09:04:14;4.03;;;2.35;;
27265;SDS011;14766;51.380;13.762;2022-07-09T09:06:41;3.95;;;2.50;;
27265;SDS011;14766;51.380;13.762;2022-07-09T09:09:09;5.45;;;2.33;;
27265;SDS011;14766;51.380;13.762;2022-07-09T09:11:49;5.65;;;2.30;;
27265;SDS011;14766;51.380;13.762;2022-07-09T09:14:20;2.42;;;2.10;;
27265;SDS011;14766;51.380;13.762;2022-07-09T09:16:49;3.30;;;2.05;;
27265;SDS011;14766;51.380;13.762;2022-07-09T09:19:18;3.22;;;2.40;;
27265;SDS011;14766;51.380;13.762;2022-07-09T09:21:51;2.83;;;1.85;;
27265;SDS011;14766;51.380;13.762;2022-07-09T09:24:24;3.92;;;2.38;;
27265;SDS011;14766;51.380;13.762;2022-07-09T09:26:55;2.60;;;2.05;;
27265;SDS011;14766;51.380;13.762;2022-07-09T09:29:24;3.33;;;2.28;;
27265;SDS011;14766;51.380;13.762;2022-07-09T09:31:52;3.70;;;1.88;;
27265;SDS011;14766;51.380;13.762;2022-07-09T09:34:19;2.13;;;1.92;;
27265;SDS011;14766;51.380;13.762;2022-07-09T09:36:48;4.60;;;2.30;;
27265;SDS011;14766;51.380;13.762;2022-07-09T09:39:25;3.50;;;2.10;;
27265;SDS011;14766;51.380;13.762;2022-07-09T09:44:26;3.00;;;2.30;;
27265;SDS011;14766;51.380;13.762;2022-07-09T09:46:56;2.22;;;1.95;;
27265;SDS011;14766;51.380;13.762;2022-07-09T09:49:24;3.55;;;1.80;;
27265;SDS011;14766;51.380;13.762;2022-07-09T09:54:36;2.67;;;1.60;;
27265;SDS011;14766;51.380;13.762;2022-07-09T09:57:09;2.70;;;1.60;;
27265;SDS011;14766;51.380;13.762;2022-07-09T09:59:40;3.13;;;1.75;;
27265;SDS011;14766;51.380;13.762;2022-07-09T10:02:09;1.77;;;1.55;;
27265;SDS011;14766;51.380;13.762;2022-07-09T10:04:41;3.80;;;1.60;;
27265;SDS011;14766;51.380;13.762;2022-07-09T10:07:13;2.65;;;1.65;;
27265;SDS011;14766;51.380;13.762;2022-07-09T10:09:51;3.63;;;1.70;;
27265;SDS011;14766;51.380;13.762;2022-07-09T10:12:27;2.60;;;1.63;;
27265;SDS011;14766;51.380;13.762;2022-07-09T10:14:59;1.73;;;1.38;;
27265;SDS011;14766;51.380;13.762;2022-07-09T10:17:27;2.67;;;1.50;;
27265;SDS011;14766;51.380;13.762;2022-07-09T10:19:58;2.28;;;1.75;;
27265;SDS011;14766;51.380;13.762;2022-07-09T10:22:39;1.73;;;1.55;;
27265;SDS011;14766;51.380;13.762;2022-07-09T10:25:10;2.40;;;1.60;;
27265;SDS011;14766;51.380;13.762;2022-07-09T10:27:43;3.80;;;1.90;;
27265;SDS011;14766;51.380;13.762;2022-07-09T10:33:21;3.20;;;1.80;;
27265;SDS011;14766;51.380;13.762;2022-07-09T10:36:09;3.33;;;1.73;;
27265;SDS011;14766;51.380;13.762;2022-07-09T10:38:38;1.90;;;1.70;;
27265;SDS011;14766;51.380;13.762;2022-07-09T10:41:06;2.85;;;1.80;;
27265;SDS011;14766;51.380;13.762;2022-07-09T10:43:39;2.88;;;2.00;;
27265;SDS011;14766;51.380;13.762;2022-07-09T10:46:15;1.60;;;1.50;;
27265;SDS011;14766;51.380;13.762;2022-07-09T10:48:46;2.60;;;1.83;;
27265;SDS011;14766;51.380;13.762;2022-07-09T10:51:18;2.08;;;1.60;;
27265;SDS011;14766;51.380;13.762;2022-07-09T10:53:46;2.97;;;1.55;;
27265;SDS011;14766;51.380;13.762;2022-07-09T10:56:20;1.83;;;1.30;;
27265;SDS011;14766;51.380;13.762;2022-07-09T10:58:48;3.13;;;1.70;;
27265;SDS011;14766;51.380;13.762;2022-07-09T11:01:18;2.28;;;1.58;;
27265;SDS011;14766;51.380;13.762;2022-07-09T11:03:54;4.22;;;1.50;;
27265;SDS011;14766;51.380;13.762;2022-07-09T11:06:21;2.05;;;1.35;;
27265;SDS011;14766;51.380;13.762;2022-07-09T11:08:48;1.67;;;1.50;;
27265;SDS011;14766;51.380;13.762;2022-07-09T11:11:22;2.67;;;1.60;;
27265;SDS011;14766;51.380;13.762;2022-07-09T11:13:50;4.45;;;1.60;;
27265;SDS011;14766;51.380;13.762;2022-07-09T11:16:22;2.63;;;1.40;;
27265;SDS011;14766;51.380;13.762;2022-07-09T11:18:51;1.98;;;1.33;;
27265;SDS011;14766;51.380;13.762;2022-07-09T11:21:22;1.75;;;1.23;;
27265;SDS011;14766;51.380;13.762;2022-07-09T11:23:52;3.35;;;1.50;;
27265;SDS011;14766;51.380;13.762;2022-07-09T11:26:25;3.70;;;1.50;;
27265;SDS011;14766;51.380;13.762;2022-07-09T11:28:57;2.25;;;1.05;;
27265;SDS011;14766;51.380;13.762;2022-07-09T11:31:24;1.98;;;1.20;;
27265;SDS011;14766;51.380;13.762;2022-07-09T11:33:51;2.67;;;1.20;;
27265;SDS011;14766;51.380;13.762;2022-07-09T11:39:05;2.35;;;1.40;;
27265;SDS011;14766;51.380;13.762;2022-07-09T11:41:43;1.85;;;1.50;;
27265;SDS011;14766;51.380;13.762;2022-07-09T11:44:11;2.20;;;1.48;;
27265;SDS011;14766;51.380;13.762;2022-07-09T11:49:31;1.10;;;1.00;;
27265;SDS011;14766;51.380;13.762;2022-07-09T11:52:01;3.33;;;1.70;;
27265;SDS011;14766;51.380;13.762;2022-07-09T11:54:29;1.67;;;1.23;;
27265;SDS011;14766;51.380;13.762;2022-07-09T11:56:58;5.25;;;1.48;;
27265;SDS011;14766;51.380;13.762;2022-07-09T11:59:26;2.03;;;1.50;;
27265;SDS011;14766;51.380;13.762;2022-07-09T12:01:59;3.83;;;1.48;;
27265;SDS011;14766;51.380;13.762;2022-07-09T12:04:29;2.55;;;1.52;;
27265;SDS011;14766;51.380;13.762;2022-07-09T12:06:57;2.72;;;1.40;;
27265;SDS011;14766;51.380;13.762;2022-07-09T12:09:30;1.90;;;1.27;;
27265;SDS011;14766;51.380;13.762;2022-07-09T12:11:58;1.58;;;1.33;;
27265;SDS011;14766;51.380;13.762;2022-07-09T12:14:25;1.88;;;1.35;;
27265;SDS011;14766;51.380;13.762;2022-07-09T12:16:53;2.60;;;1.27;;
27265;SDS011;14766;51.380;13.762;2022-07-09T12:19:20;3.10;;;1.50;;
27265;SDS011;14766;51.380;13.762;2022-07-09T12:21:47;2.00;;;1.40;;
27265;SDS011;14766;51.380;13.762;2022-07-09T12:24:15;3.35;;;1.40;;
27265;SDS011;14766;51.380;13.762;2022-07-09T12:26:42;1.80;;;1.17;;
27265;SDS011;14766;51.380;13.762;2022-07-09T12:29:29;1.35;;;1.10;;
27265;SDS011;14766;51.380;13.762;2022-07-09T12:31:57;1.95;;;1.40;;
27265;SDS011;14766;51.380;13.762;2022-07-09T12:34:24;2.65;;;1.55;;
27265;SDS011;14766;51.380;13.762;2022-07-09T12:36:51;3.47;;;1.70;;
27265;SDS011;14766;51.380;13.762;2022-07-09T12:39:25;3.45;;;1.60;;
27265;SDS011;14766;51.380;13.762;2022-07-09T12:41:53;2.33;;;1.58;;
27265;SDS011;14766;51.380;13.762;2022-07-09T12:44:20;1.95;;;1.50;;
27265;SDS011;14766;51.380;13.762;2022-07-09T12:46:48;1.92;;;1.30;;
27265;SDS011;14766;51.380;13.762;2022-07-09T12:49:16;2.30;;;1.33;;
27265;SDS011;14766;51.380;13.762;2022-07-09T12:51:43;2.72;;;1.15;;
27265;SDS011;14766;51.380;13.762;2022-07-09T12:54:10;2.25;;;1.40;;
27265;SDS011;14766;51.380;13.762;2022-07-09T12:56:37;3.22;;;1.20;;
27265;SDS011;14766;51.380;13.762;2022-07-09T12:59:24;2.55;;;1.55;;
27265;SDS011;14766;51.380;13.762;2022-07-09T13:01:51;1.70;;;1.35;;
27265;SDS011;14766;51.380;13.762;2022-07-09T13:04:18;1.58;;;0.95;;
27265;SDS011;14766;51.380;13.762;2022-07-09T13:06:46;1.40;;;1.23;;
27265;SDS011;14766;51.380;13.762;2022-07-09T13:09:13;1.88;;;1.20;;
27265;SDS011;14766;51.380;13.762;2022-07-09T13:11:40;3.20;;;1.20;;
27265;SDS011;14766;51.380;13.762;2022-07-09T13:14:07;1.40;;;0.95;;
27265;SDS011;14766;51.380;13.762;2022-07-09T13:16:37;1.50;;;1.20;;
27265;SDS011;14766;51.380;13.762;2022-07-09T13:19:04;1.05;;;0.90;;
27265;SDS011;14766;51.380;13.762;2022-07-09T13:21:31;2.53;;;1.10;;
27265;SDS011;14766;51.380;13.762;2022-07-09T13:23:59;2.20;;;1.17;;
27265;SDS011;14766;51.380;13.762;2022-07-09T13:26:26;2.28;;;1.00;;
27265;SDS011;14766;51.380;13.762;2022-07-09T13:29:00;3.13;;;1.08;;
27265;SDS011;14766;51.380;13.762;2022-07-09T13:31:29;1.55;;;0.88;;
27265;SDS011;14766;51.380;13.762;2022-07-09T13:33:56;1.60;;;1.00;;
27265;SDS011;14766;51.380;13.762;2022-07-09T13:36:24;2.72;;;1.17;;
27265;SDS011;14766;51.380;13.762;2022-07-09T13:38:53;1.13;;;0.80;;
27265;SDS011;14766;51.380;13.762;2022-07-09T13:41:22;0.95;;;0.90;;
27265;SDS011;14766;51.380;13.762;2022-07-09T13:43:51;1.23;;;1.08;;
27265;SDS011;14766;51.380;13.762;2022-07-09T13:46:19;1.80;;;1.00;;
27265;SDS011;14766;51.380;13.762;2022-07-09T13:48:47;1.25;;;1.00;;
27265;SDS011;14766;51.380;13.762;2022-07-09T13:51:14;1.35;;;1.00;;
27265;SDS011;14766;51.380;13.762;2022-07-09T13:53:43;2.10;;;1.10;;
27265;SDS011;14766;51.380;13.762;2022-07-09T13:56:10;1.50;;;0.90;;
27265;SDS011;14766;51.380;13.762;2022-07-09T13:58:46;0.75;;;0.68;;
27265;SDS011;14766;51.380;13.762;2022-07-09T14:01:13;1.40;;;1.10;;
27265;SDS011;14766;51.380;13.762;2022-07-09T14:03:42;0.88;;;0.88;;
27265;SDS011;14766;51.380;13.762;2022-07-09T14:06:10;1.25;;;0.90;;
27265;SDS011;14766;51.380;13.762;2022-07-09T14:08:58;1.33;;;0.90;;
27265;SDS011;14766;51.380;13.762;2022-07-09T14:11:25;1.10;;;0.80;;
27265;SDS011;14766;51.380;13.762;2022-07-09T14:13:52;2.08;;;0.95;;
27265;SDS011;14766;51.380;13.762;2022-07-09T14:16:20;0.80;;;0.80;;
27265;SDS011;14766;51.380;13.762;2022-07-09T14:18:50;1.73;;;1.08;;
27265;SDS011;14766;51.380;13.762;2022-07-09T14:21:18;1.42;;;1.02;;
27265;SDS011;14766;51.380;13.762;2022-07-09T14:23:45;4.07;;;1.20;;
27265;SDS011;14766;51.380;13.762;2022-07-09T14:26:15;1.02;;;0.90;;
27265;SDS011;14766;51.380;13.762;2022-07-09T14:28:42;1.88;;;1.30;;
27265;SDS011;14766;51.380;13.762;2022-07-09T14:31:09;1.38;;;1.10;;
27265;SDS011;14766;51.380;13.762;2022-07-09T14:33:37;1.27;;;1.10;;
27265;SDS011;14766;51.380;13.762;2022-07-09T14:36:04;1.02;;;0.80;;
27265;SDS011;14766;51.380;13.762;2022-07-09T14:38:32;1.00;;;0.90;;
27265;SDS011;14766;51.380;13.762;2022-07-09T14:41:00;1.17;;;0.85;;
27265;SDS011;14766;51.380;13.762;2022-07-09T14:43:27;1.27;;;1.15;;
27265;SDS011;14766;51.380;13.762;2022-07-09T14:45:54;2.08;;;1.02;;
27265;SDS011;14766;51.380;13.762;2022-07-09T14:48:21;1.40;;;1.30;;
27265;SDS011;14766;51.380;13.762;2022-07-09T14:50:48;1.92;;;1.60;;
27265;SDS011;14766;51.380;13.762;2022-07-09T14:53:16;1.40;;;1.30;;
27265;SDS011;14766;51.380;13.762;2022-07-09T14:55:44;2.20;;;1.52;;